createdAt,value
2018-07-25T00:00:01.452Z,1001.65
2018-07-25T00:01:01.431Z,1001.62
2018-07-25T00:02:01.452Z,1001.66
2018-07-25T00:03:01.416Z,1001.70
2018-07-25T00:04:01.405Z,1001.68
2018-07-25T00:05:01.388Z,1001.68
2018-07-25T00:06:01.390Z,1001.67
2018-07-25T00:07:01.364Z,1001.70
2018-07-25T00:08:01.379Z,1001.67
2018-07-25T00:09:01.346Z,1001.66
2018-07-25T00:10:01.331Z,1001.69
2018-07-25T00:11:01.324Z,1001.70
2018-07-25T00:12:01.341Z,1001.72
2018-07-25T00:13:01.324Z,1001.68
2018-07-25T00:14:01.289Z,1001.68
2018-07-25T00:15:01.273Z,1001.71
2018-07-25T00:16:01.262Z,1001.70
2018-07-25T00:17:01.257Z,1001.67
2018-07-25T00:18:01.239Z,1001.65
2018-07-25T00:19:01.257Z,1001.68
2018-07-25T00:20:01.219Z,1001.68
2018-07-25T00:21:01.212Z,1001.66
2018-07-25T00:22:01.197Z,1001.66
2018-07-25T00:23:01.187Z,1001.61
2018-07-25T00:24:01.199Z,1001.62
2018-07-25T00:25:01.163Z,1001.61
2018-07-25T00:26:01.151Z,1001.61
2018-07-25T00:27:01.144Z,1001.64
2018-07-25T00:28:01.129Z,1001.60
2018-07-25T00:29:01.146Z,1001.61
2018-07-25T00:30:01.110Z,1001.60
2018-07-25T00:31:01.090Z,1001.59
2018-07-25T00:32:01.088Z,1001.58
2018-07-25T00:33:01.068Z,1001.60
2018-07-25T00:34:01.097Z,1001.57
2018-07-25T00:35:01.048Z,1001.56
2018-07-25T00:36:01.045Z,1001.54
2018-07-25T00:37:01.031Z,1001.58
2018-07-25T00:38:01.023Z,1001.59
2018-07-25T00:39:00.999Z,1001.54
2018-07-25T00:40:01.023Z,1001.54
2018-07-25T00:41:00.977Z,1001.59
2018-07-25T00:42:00.969Z,1001.55
2018-07-25T00:43:00.960Z,1001.53
2018-07-25T00:44:00.945Z,1001.59
2018-07-25T00:45:00.961Z,1001.56
2018-07-25T00:46:00.926Z,1001.55
2018-07-25T00:47:00.917Z,1001.55
2018-07-25T00:48:00.904Z,1001.54
2018-07-25T00:49:00.889Z,1001.57
2018-07-25T00:50:00.914Z,1001.54
2018-07-25T00:51:00.864Z,1001.54
2018-07-25T00:52:00.856Z,1001.55
2018-07-25T00:53:00.856Z,1001.51
2018-07-25T00:54:00.835Z,1001.56
2018-07-25T00:55:00.823Z,1001.54
2018-07-25T00:56:00.839Z,1001.54
2018-07-25T00:57:00.801Z,1001.54
2018-07-25T00:58:00.785Z,1001.55
2018-07-25T00:59:00.782Z,1001.58
2018-07-25T01:00:00.761Z,1001.56
2018-07-25T01:01:00.782Z,1001.59
2018-07-25T01:02:00.748Z,1001.59
2018-07-25T01:03:00.728Z,1001.56
2018-07-25T01:04:00.728Z,1001.58
2018-07-25T01:05:00.705Z,1001.59
2018-07-25T01:06:00.721Z,1001.54
2018-07-25T01:07:00.688Z,1001.57
2018-07-25T01:08:00.679Z,1001.55
2018-07-25T01:09:00.666Z,1001.57
2018-07-25T01:10:00.653Z,1001.53
2018-07-25T01:11:00.679Z,1001.51
2018-07-25T01:12:00.626Z,1001.54
2018-07-25T01:13:00.624Z,1001.57
2018-07-25T01:14:00.603Z,1001.56
2018-07-25T01:15:00.603Z,1001.57
2018-07-25T01:16:00.585Z,1001.61
2018-07-25T01:17:00.596Z,1001.62
2018-07-25T01:18:00.565Z,1001.69
2018-07-25T01:19:00.546Z,1001.65
2018-07-25T01:20:00.537Z,1001.70
2018-07-25T01:21:00.528Z,1001.68
2018-07-25T01:22:00.535Z,1001.69
2018-07-25T01:23:00.509Z,1001.71
2018-07-25T01:24:00.493Z,1001.70
2018-07-25T01:25:00.480Z,1001.68
2018-07-25T01:26:00.474Z,1001.67
2018-07-25T01:27:00.495Z,1001.63
2018-07-25T01:28:00.452Z,1001.67
2018-07-25T01:29:00.438Z,1001.64
2018-07-25T01:30:00.423Z,1001.67
2018-07-25T01:31:00.417Z,1001.68
2018-07-25T01:32:00.400Z,1001.66
2018-07-25T01:33:00.419Z,1001.63
2018-07-25T01:34:00.380Z,1001.68
2018-07-25T01:35:00.366Z,1001.70
2018-07-25T01:36:00.360Z,1001.68
2018-07-25T01:37:00.345Z,1001.71
2018-07-25T01:38:00.358Z,1001.74
2018-07-25T01:39:00.326Z,1001.69
2018-07-25T01:40:00.311Z,1001.72
2018-07-25T01:41:00.296Z,1001.72
2018-07-25T01:42:00.291Z,1001.71
2018-07-25T01:43:00.295Z,1001.77
2018-07-25T01:44:00.262Z,1001.72
2018-07-25T01:45:00.271Z,1001.70
2018-07-25T01:46:00.245Z,1001.70
2018-07-25T01:47:00.224Z,1001.70
2018-07-25T01:48:00.217Z,1001.69
2018-07-25T01:49:00.212Z,1001.69
2018-07-25T01:50:00.215Z,1001.72
2018-07-25T01:51:00.186Z,1001.74
2018-07-25T01:52:00.176Z,1001.75
2018-07-25T01:53:00.158Z,1001.73
2018-07-25T01:54:00.147Z,1001.69
2018-07-25T01:55:00.156Z,1001.69
2018-07-25T01:56:00.123Z,1001.68
2018-07-25T01:57:00.113Z,1001.70
2018-07-25T01:58:00.104Z,1001.72
2018-07-25T01:59:00.092Z,1001.77
2018-07-25T02:00:00.119Z,1001.77
2018-07-25T02:01:00.072Z,1001.73
2018-07-25T02:02:00.058Z,1001.75
2018-07-25T02:03:00.042Z,1001.76
2018-07-25T02:04:00.027Z,1001.78
2018-07-25T02:05:00.050Z,1001.71
2018-07-25T02:06:00.006Z,1001.70
2018-07-25T02:06:59.996Z,1001.70
2018-07-25T02:07:59.988Z,1001.71
2018-07-25T02:09:00.019Z,1001.73
2018-07-25T02:09:59.980Z,1001.74
2018-07-25T02:10:59.951Z,1001.76
2018-07-25T02:11:59.933Z,1001.80
2018-07-25T02:12:59.929Z,1001.79
2018-07-25T02:13:59.919Z,1001.78
2018-07-25T02:14:59.921Z,1001.87
2018-07-25T02:15:59.894Z,1001.78
2018-07-25T02:16:59.880Z,1001.87
2018-07-25T02:17:59.870Z,1001.86
2018-07-25T02:18:59.860Z,1001.82
2018-07-25T02:19:59.867Z,1001.85
2018-07-25T02:20:59.835Z,1001.84
2018-07-25T02:21:59.822Z,1001.83
2018-07-25T02:22:59.809Z,1001.85
2018-07-25T02:23:59.799Z,1001.81
2018-07-25T02:24:59.810Z,1001.86
2018-07-25T02:25:59.771Z,1001.92
2018-07-25T02:26:59.764Z,1001.95
2018-07-25T02:27:59.754Z,1001.95
2018-07-25T02:28:59.733Z,1001.96
2018-07-25T02:29:59.753Z,1001.97
2018-07-25T02:30:59.713Z,1001.92
2018-07-25T02:31:59.698Z,1001.96
2018-07-25T02:32:59.690Z,1001.96
2018-07-25T02:33:59.677Z,1001.99
2018-07-25T02:34:59.699Z,1001.97
2018-07-25T02:35:59.660Z,1001.96
2018-07-25T02:36:59.643Z,1001.99
2018-07-25T02:37:59.638Z,1002.00
2018-07-25T02:38:59.618Z,1001.98
2018-07-25T02:39:59.629Z,1001.98
2018-07-25T02:40:59.605Z,1001.97
2018-07-25T02:41:59.583Z,1001.94
2018-07-25T02:42:59.574Z,1001.92
2018-07-25T02:43:59.565Z,1001.92
2018-07-25T02:44:59.579Z,1001.95
2018-07-25T02:45:59.543Z,1001.91
2018-07-25T02:46:59.523Z,1001.91
2018-07-25T02:47:59.515Z,1001.97
2018-07-25T02:48:59.500Z,1001.96
2018-07-25T02:49:59.516Z,1001.98
2018-07-25T02:50:59.483Z,1001.99
2018-07-25T02:51:59.473Z,1001.95
2018-07-25T02:52:59.453Z,1001.97
2018-07-25T02:53:59.449Z,1001.98
2018-07-25T02:54:59.452Z,1001.97
2018-07-25T02:55:59.419Z,1002.04
2018-07-25T02:56:59.460Z,1002.02
2018-07-25T02:57:59.397Z,1002.03
2018-07-25T02:58:59.384Z,1002.07
2018-07-25T02:59:59.398Z,1002.07
2018-07-25T03:00:59.367Z,1002.10
2018-07-25T03:01:59.353Z,1002.11
2018-07-25T03:02:59.339Z,1002.13
2018-07-25T03:03:59.331Z,1002.14
2018-07-25T03:04:59.346Z,1002.14
2018-07-25T03:05:59.301Z,1002.18
2018-07-25T03:06:59.301Z,1002.13
2018-07-25T03:07:59.279Z,1002.12
2018-07-25T03:08:59.331Z,1002.14
2018-07-25T03:09:59.287Z,1002.13
2018-07-25T03:10:59.243Z,1002.13
2018-07-25T03:11:59.239Z,1002.12
2018-07-25T03:12:59.224Z,1002.11
2018-07-25T03:13:59.215Z,1002.06
2018-07-25T03:14:59.223Z,1002.08
2018-07-25T03:15:59.190Z,1002.08
2018-07-25T03:16:59.177Z,1002.13
2018-07-25T03:17:59.163Z,1002.05
2018-07-25T03:18:59.155Z,1002.07
2018-07-25T03:19:59.174Z,1002.10
2018-07-25T03:20:59.137Z,1002.11
2018-07-25T03:21:59.117Z,1002.08
2018-07-25T03:22:59.115Z,1002.09
2018-07-25T03:23:59.094Z,1002.08
2018-07-25T03:24:59.111Z,1002.01
2018-07-25T03:25:59.080Z,1002.07
2018-07-25T03:26:59.060Z,1002.06
2018-07-25T03:27:59.051Z,1002.04
2018-07-25T03:28:59.040Z,1002.08
2018-07-25T03:29:59.056Z,1002.05
2018-07-25T03:30:59.012Z,1002.04
2018-07-25T03:31:59.009Z,1002.09
2018-07-25T03:32:58.989Z,1002.07
2018-07-25T03:33:58.977Z,1001.99
2018-07-25T03:34:59.002Z,1002.00
2018-07-25T03:35:58.952Z,1001.97
2018-07-25T03:36:58.951Z,1002.04
2018-07-25T03:37:58.930Z,1002.05
2018-07-25T03:38:58.927Z,1002.07
2018-07-25T03:39:58.935Z,1002.08
2018-07-25T03:40:58.898Z,1002.13
2018-07-25T03:41:58.892Z,1002.14
2018-07-25T03:42:58.872Z,1002.12
2018-07-25T03:43:58.862Z,1002.17
2018-07-25T03:44:58.881Z,1002.12
2018-07-25T03:45:58.843Z,1002.14
2018-07-25T03:46:58.832Z,1002.12
2018-07-25T03:47:58.814Z,1002.13
2018-07-25T03:48:58.810Z,1002.17
2018-07-25T03:49:58.817Z,1002.21
2018-07-25T03:50:58.785Z,1002.18
2018-07-25T03:51:58.779Z,1002.22
2018-07-25T03:52:58.761Z,1002.21
2018-07-25T03:53:58.748Z,1002.18
2018-07-25T03:54:58.766Z,1002.19
2018-07-25T03:55:58.730Z,1002.14
2018-07-25T03:56:58.713Z,1002.27
2018-07-25T03:57:58.705Z,1002.20
2018-07-25T03:58:58.691Z,1002.14
2018-07-25T03:59:58.699Z,1002.16
2018-07-25T04:00:58.675Z,1002.18
2018-07-25T04:01:58.684Z,1002.12
2018-07-25T04:02:58.649Z,1002.22
2018-07-25T04:03:58.641Z,1002.16
2018-07-25T04:04:58.643Z,1002.14
2018-07-25T04:05:58.607Z,1002.20
2018-07-25T04:06:58.605Z,1002.18
2018-07-25T04:07:58.584Z,1002.18
2018-07-25T04:08:58.578Z,1002.23
2018-07-25T04:09:58.591Z,1002.23
2018-07-25T04:10:58.555Z,1002.23
2018-07-25T04:11:58.546Z,1002.24
2018-07-25T04:12:58.535Z,1002.27
2018-07-25T04:13:58.519Z,1002.26
2018-07-25T04:14:58.531Z,1002.26
2018-07-25T04:15:58.498Z,1002.26
2018-07-25T04:16:58.482Z,1002.29
2018-07-25T04:17:58.478Z,1002.31
2018-07-25T04:18:58.462Z,1002.30
2018-07-25T04:19:58.470Z,1002.33
2018-07-25T04:20:58.445Z,1002.39
2018-07-25T04:21:58.433Z,1002.36
2018-07-25T04:22:58.418Z,1002.34
2018-07-25T04:23:58.404Z,1002.34
2018-07-25T04:24:58.418Z,1002.37
2018-07-25T04:25:58.387Z,1002.34
2018-07-25T04:26:58.367Z,1002.35
2018-07-25T04:27:58.363Z,1002.35
2018-07-25T04:28:58.345Z,1002.32
2018-07-25T04:29:58.358Z,1002.39
2018-07-25T04:30:58.332Z,1002.37
2018-07-25T04:31:58.312Z,1002.40
2018-07-25T04:32:58.308Z,1002.39
2018-07-25T04:33:58.308Z,1002.41
2018-07-25T04:34:58.300Z,1002.36
2018-07-25T04:35:58.267Z,1002.30
2018-07-25T04:36:58.257Z,1002.40
2018-07-25T04:37:58.246Z,1002.40
2018-07-25T04:38:58.231Z,1002.40
2018-07-25T04:39:58.241Z,1002.40
2018-07-25T04:40:58.218Z,1002.36
2018-07-25T04:41:58.198Z,1002.41
2018-07-25T04:42:58.184Z,1002.43
2018-07-25T04:43:58.176Z,1002.42
2018-07-25T04:44:58.186Z,1002.46
2018-07-25T04:45:58.152Z,1002.49
2018-07-25T04:46:58.141Z,1002.47
2018-07-25T04:47:58.128Z,1002.48
2018-07-25T04:48:58.120Z,1002.56
2018-07-25T04:49:58.132Z,1002.49
2018-07-25T04:50:58.099Z,1002.49
2018-07-25T04:51:58.136Z,1002.49
2018-07-25T04:52:58.069Z,1002.48
2018-07-25T04:53:58.065Z,1002.45
2018-07-25T04:54:58.068Z,1002.47
2018-07-25T04:55:58.045Z,1002.53
2018-07-25T04:56:58.031Z,1002.50
2018-07-25T04:57:58.018Z,1002.49
2018-07-25T04:58:57.999Z,1002.54
2018-07-25T04:59:58.011Z,1002.48
2018-07-25T05:00:57.980Z,1002.52
2018-07-25T05:01:57.965Z,1002.55
2018-07-25T05:02:57.962Z,1002.53
2018-07-25T05:03:57.946Z,1002.49
2018-07-25T05:04:57.957Z,1002.47
2018-07-25T05:05:57.924Z,1002.51
2018-07-25T05:06:57.913Z,1002.47
2018-07-25T05:07:57.897Z,1002.50
2018-07-25T05:08:57.892Z,1002.48
2018-07-25T05:09:57.899Z,1002.55
2018-07-25T05:10:57.860Z,1002.55
2018-07-25T05:11:57.845Z,1002.51
2018-07-25T05:12:57.837Z,1002.56
2018-07-25T05:13:57.828Z,1002.56
2018-07-25T05:14:57.968Z,1002.55
2018-07-25T05:15:57.811Z,1002.55
2018-07-25T05:16:57.791Z,1002.61
2018-07-25T05:17:57.879Z,1002.65
2018-07-25T05:18:57.771Z,1002.66
2018-07-25T05:19:57.781Z,1002.64
2018-07-25T05:20:57.748Z,1002.64
2018-07-25T05:21:57.733Z,1002.65
2018-07-25T05:22:57.818Z,1002.69
2018-07-25T05:23:57.718Z,1002.70
2018-07-25T05:24:57.723Z,1002.70
2018-07-25T05:25:57.691Z,1002.74
2018-07-25T05:26:57.680Z,1002.71
2018-07-25T05:27:57.663Z,1002.75
2018-07-25T05:28:57.654Z,1002.77
2018-07-25T05:29:57.662Z,1002.73
2018-07-25T05:30:57.636Z,1002.79
2018-07-25T05:31:57.624Z,1002.81
2018-07-25T05:32:57.608Z,1002.80
2018-07-25T05:33:57.603Z,1002.85
2018-07-25T05:34:57.606Z,1002.86
2018-07-25T05:35:57.577Z,1002.86
2018-07-25T05:36:57.569Z,1002.83
2018-07-25T05:37:57.548Z,1002.90
2018-07-25T05:38:57.543Z,1002.84
2018-07-25T05:39:57.551Z,1002.85
2018-07-25T05:40:57.522Z,1002.86
2018-07-25T05:41:57.514Z,1002.91
2018-07-25T05:42:57.491Z,1002.90
2018-07-25T05:43:57.554Z,1002.85
2018-07-25T05:44:57.499Z,1002.89
2018-07-25T05:45:57.461Z,1002.89
2018-07-25T05:46:57.454Z,1002.80
2018-07-25T05:47:57.437Z,1002.82
2018-07-25T05:48:57.429Z,1002.83
2018-07-25T05:49:57.441Z,1002.88
2018-07-25T05:50:57.405Z,1002.85
2018-07-25T05:51:57.402Z,1002.83
2018-07-25T05:52:57.381Z,1002.86
2018-07-25T05:53:57.369Z,1002.84
2018-07-25T05:54:57.381Z,1002.86
2018-07-25T05:55:57.347Z,1002.85
2018-07-25T05:56:57.337Z,1002.91
2018-07-25T05:57:57.332Z,1002.90
2018-07-25T05:58:57.313Z,1002.91
2018-07-25T05:59:57.332Z,1002.94
2018-07-25T06:00:57.296Z,1002.91
2018-07-25T06:01:57.276Z,1002.97
2018-07-25T06:02:57.423Z,1002.93
2018-07-25T06:03:57.254Z,1002.95
2018-07-25T06:04:57.272Z,1002.97
2018-07-25T06:05:57.252Z,1002.91
2018-07-25T06:06:57.218Z,1002.91
2018-07-25T06:07:57.215Z,1002.96
2018-07-25T06:08:57.197Z,1002.97
2018-07-25T06:09:57.211Z,1002.93
2018-07-25T06:10:57.175Z,1002.95
2018-07-25T06:11:57.169Z,1002.98
2018-07-25T06:12:57.211Z,1003.02
2018-07-25T06:13:57.146Z,1003.00
2018-07-25T06:14:57.152Z,1003.01
2018-07-25T06:15:57.117Z,1003.02
2018-07-25T06:16:57.103Z,1003.06
2018-07-25T06:17:57.094Z,1003.06
2018-07-25T06:18:57.085Z,1003.06
2018-07-25T06:19:57.100Z,1003.06
2018-07-25T06:20:57.056Z,1003.08
2018-07-25T06:21:57.050Z,1003.18
2018-07-25T06:22:57.037Z,1003.19
2018-07-25T06:23:57.021Z,1003.18
2018-07-25T06:24:57.094Z,1003.22
2018-07-25T06:25:57.065Z,1003.17
2018-07-25T06:26:56.988Z,1003.26
2018-07-25T06:27:56.985Z,1003.28
2018-07-25T06:28:56.966Z,1003.29
2018-07-25T06:29:56.982Z,1003.32
2018-07-25T06:30:56.953Z,1003.33
2018-07-25T06:31:56.932Z,1003.40
2018-07-25T06:32:56.924Z,1003.40
2018-07-25T06:33:56.919Z,1003.42
2018-07-25T06:34:56.927Z,1003.40
2018-07-25T06:35:56.885Z,1003.41
2018-07-25T06:36:56.885Z,1003.44
2018-07-25T06:37:56.901Z,1003.46
2018-07-25T06:38:56.860Z,1003.48
2018-07-25T06:39:56.874Z,1003.44
2018-07-25T06:40:56.829Z,1003.47
2018-07-25T06:41:56.825Z,1003.50
2018-07-25T06:42:56.810Z,1003.51
2018-07-25T06:43:56.799Z,1003.58
2018-07-25T06:44:56.813Z,1003.54
2018-07-25T06:45:56.783Z,1003.55
2018-07-25T06:46:56.771Z,1003.59
2018-07-25T06:47:56.756Z,1003.57
2018-07-25T06:48:56.746Z,1003.62
2018-07-25T06:49:56.765Z,1003.61
2018-07-25T06:50:56.719Z,1003.67
2018-07-25T06:51:56.710Z,1003.62
2018-07-25T06:52:56.703Z,1003.59
2018-07-25T06:53:56.688Z,1003.64
2018-07-25T06:54:56.711Z,1003.64
2018-07-25T06:55:56.670Z,1003.69
2018-07-25T06:56:56.654Z,1003.66
2018-07-25T06:57:56.641Z,1003.70
2018-07-25T06:58:56.629Z,1003.68
2018-07-25T06:59:56.643Z,1003.71
2018-07-25T07:00:56.613Z,1003.71
2018-07-25T07:01:56.603Z,1003.73
2018-07-25T07:02:56.588Z,1003.70
2018-07-25T07:03:56.579Z,1003.75
2018-07-25T07:04:56.571Z,1003.75
2018-07-25T07:05:56.581Z,1003.78
2018-07-25T07:06:56.563Z,1003.76
2018-07-25T07:07:56.535Z,1003.79
2018-07-25T07:08:56.530Z,1003.82
2018-07-25T07:09:56.510Z,1003.77
2018-07-25T07:10:56.528Z,1003.86
2018-07-25T07:11:56.488Z,1003.86
2018-07-25T07:12:56.480Z,1003.87
2018-07-25T07:13:56.462Z,1003.89
2018-07-25T07:14:56.454Z,1003.83
2018-07-25T07:15:56.470Z,1003.87
2018-07-25T07:16:56.436Z,1003.89
2018-07-25T07:17:56.428Z,1003.84
2018-07-25T07:18:56.408Z,1003.86
2018-07-25T07:19:56.402Z,1003.89
2018-07-25T07:20:56.411Z,1003.89
2018-07-25T07:21:56.387Z,1003.92
2018-07-25T07:22:56.373Z,1003.91
2018-07-25T07:23:56.407Z,1003.93
2018-07-25T07:24:56.344Z,1003.95
2018-07-25T07:25:56.362Z,1003.92
2018-07-25T07:26:56.326Z,1003.90
2018-07-25T07:27:56.313Z,1003.95
2018-07-25T07:28:56.308Z,1004.01
2018-07-25T07:29:56.298Z,1003.98
2018-07-25T07:30:56.315Z,1003.99
2018-07-25T07:31:56.276Z,1003.96
2018-07-25T07:32:56.255Z,1004.03
2018-07-25T07:33:56.251Z,1004.00
2018-07-25T07:34:56.237Z,1004.07
2018-07-25T07:35:56.258Z,1004.02
2018-07-25T07:36:56.223Z,1004.00
2018-07-25T07:37:56.208Z,1004.02
2018-07-25T07:38:56.194Z,1004.03
2018-07-25T07:39:56.180Z,1004.03
2018-07-25T07:40:56.204Z,1003.97
2018-07-25T07:41:56.163Z,1003.98
2018-07-25T07:42:56.159Z,1003.99
2018-07-25T07:43:56.148Z,1003.97
2018-07-25T07:44:56.125Z,1004.01
2018-07-25T07:45:56.145Z,1003.99
2018-07-25T07:46:56.113Z,1003.97
2018-07-25T07:47:56.093Z,1003.99
2018-07-25T07:48:56.095Z,1004.00
2018-07-25T07:49:56.086Z,1004.02
2018-07-25T07:50:56.095Z,1003.98
2018-07-25T07:51:56.062Z,1004.01
2018-07-25T07:52:56.041Z,1003.98
2018-07-25T07:53:56.068Z,1003.99
2018-07-25T07:54:56.020Z,1003.98
2018-07-25T07:55:56.042Z,1004.05
2018-07-25T07:56:56.000Z,1004.01
2018-07-25T07:57:55.992Z,1004.04
2018-07-25T07:58:55.986Z,1004.04
2018-07-25T07:59:55.969Z,1004.04
2018-07-25T08:00:55.990Z,1004.02
2018-07-25T08:01:55.958Z,1004.07
2018-07-25T08:02:55.939Z,1004.07
2018-07-25T08:03:55.933Z,1004.05
2018-07-25T08:04:55.942Z,1004.07
2018-07-25T08:05:55.939Z,1004.09
2018-07-25T08:06:55.897Z,1004.11
2018-07-25T08:07:55.883Z,1004.06
2018-07-25T08:08:55.883Z,1004.06
2018-07-25T08:09:55.872Z,1004.06
2018-07-25T08:10:55.880Z,1004.07
2018-07-25T08:11:55.848Z,1004.06
2018-07-25T08:12:55.837Z,1004.10
2018-07-25T08:13:55.826Z,1004.08
2018-07-25T08:14:55.819Z,1004.06
2018-07-25T08:15:55.830Z,1004.11
2018-07-25T08:16:55.798Z,1004.10
2018-07-25T08:17:55.813Z,1004.09
2018-07-25T08:18:55.776Z,1004.10
2018-07-25T08:19:55.776Z,1004.09
2018-07-25T08:20:55.808Z,1004.11
2018-07-25T08:21:55.755Z,1004.04
2018-07-25T08:22:55.735Z,1004.04
2018-07-25T08:23:55.730Z,1004.09
2018-07-25T08:24:55.722Z,1004.09
2018-07-25T08:25:55.741Z,1004.05
2018-07-25T08:26:55.695Z,1004.08
2018-07-25T08:27:55.688Z,1004.10
2018-07-25T08:28:55.683Z,1004.10
2018-07-25T08:29:55.663Z,1004.11
2018-07-25T08:30:55.688Z,1004.11
2018-07-25T08:31:55.644Z,1004.09
2018-07-25T08:32:55.665Z,1004.14
2018-07-25T08:33:55.653Z,1004.09
2018-07-25T08:34:55.726Z,1004.08
2018-07-25T08:35:55.633Z,1004.13
2018-07-25T08:36:55.602Z,1004.14
2018-07-25T08:37:55.586Z,1004.16
2018-07-25T08:38:55.577Z,1004.16
2018-07-25T08:39:55.570Z,1004.18
2018-07-25T08:40:55.588Z,1004.16
2018-07-25T08:41:55.546Z,1004.11
2018-07-25T08:42:55.545Z,1004.11
2018-07-25T08:43:55.532Z,1004.15
2018-07-25T08:44:55.520Z,1004.14
2018-07-25T08:45:55.540Z,1004.12
2018-07-25T08:46:55.544Z,1004.09
2018-07-25T08:47:55.492Z,1004.12
2018-07-25T08:48:55.484Z,1004.10
2018-07-25T08:49:55.472Z,1004.11
2018-07-25T08:50:55.493Z,1004.12
2018-07-25T08:51:55.455Z,1004.13
2018-07-25T08:52:55.502Z,1004.10
2018-07-25T08:53:55.433Z,1004.12
2018-07-25T08:54:55.420Z,1004.09
2018-07-25T08:55:55.442Z,1004.05
2018-07-25T08:56:55.401Z,1004.10
2018-07-25T08:57:55.401Z,1004.14
2018-07-25T08:58:55.381Z,1004.14
2018-07-25T08:59:55.381Z,1004.11
2018-07-25T09:00:55.387Z,1004.08
2018-07-25T09:01:55.377Z,1004.09
2018-07-25T09:02:55.353Z,1004.07
2018-07-25T09:03:55.333Z,1004.07
2018-07-25T09:04:55.335Z,1004.05
2018-07-25T09:05:55.348Z,1004.08
2018-07-25T09:06:55.305Z,1004.10
2018-07-25T09:07:55.305Z,1004.10
2018-07-25T09:08:55.287Z,1004.08
2018-07-25T09:09:55.278Z,1004.09
2018-07-25T09:10:55.300Z,1004.10
2018-07-25T09:11:55.259Z,1004.11
2018-07-25T09:12:55.318Z,1004.07
2018-07-25T09:13:55.239Z,1004.10
2018-07-25T09:14:55.240Z,1004.06
2018-07-25T09:15:55.247Z,1004.10
2018-07-25T09:16:55.284Z,1004.10
2018-07-25T09:17:55.213Z,1004.12
2018-07-25T09:18:55.196Z,1004.02
2018-07-25T09:19:55.227Z,1003.98
2018-07-25T09:20:55.201Z,1003.88
2018-07-25T09:21:55.174Z,1003.65
2018-07-25T09:22:55.162Z,1003.73
2018-07-25T09:23:55.156Z,1003.73
2018-07-25T09:24:55.143Z,1004.07
2018-07-25T09:25:55.157Z,1004.08
2018-07-25T09:26:55.129Z,1004.10
2018-07-25T09:27:55.115Z,1004.09
2018-07-25T09:28:55.109Z,1004.07
2018-07-25T09:29:55.098Z,1004.10
2018-07-25T09:30:55.114Z,1004.08
2018-07-25T09:31:55.086Z,1004.09
2018-07-25T09:32:55.079Z,1004.05
2018-07-25T09:33:55.088Z,1004.10
2018-07-25T09:34:55.059Z,1004.10
2018-07-25T09:35:55.064Z,1004.10
2018-07-25T09:36:55.045Z,1004.07
2018-07-25T09:37:55.032Z,1004.06
2018-07-25T09:38:55.016Z,1004.10
2018-07-25T09:39:55.014Z,1004.08
2018-07-25T09:40:55.052Z,1004.01
2018-07-25T09:41:54.990Z,1004.04
2018-07-25T09:42:54.985Z,1004.04
2018-07-25T09:43:54.972Z,1004.05
2018-07-25T09:44:54.967Z,1004.07
2018-07-25T09:45:54.987Z,1004.06
2018-07-25T09:46:54.985Z,1004.00
2018-07-25T09:47:54.938Z,1004.00
2018-07-25T09:48:54.950Z,1004.04
2018-07-25T09:49:54.926Z,1004.05
2018-07-25T09:50:54.943Z,1004.06
2018-07-25T09:51:54.905Z,1004.06
2018-07-25T09:52:54.949Z,1004.04
2018-07-25T09:53:54.891Z,1004.07
2018-07-25T09:54:54.889Z,1004.04
2018-07-25T09:55:54.920Z,1004.02
2018-07-25T09:56:54.864Z,1004.04
2018-07-25T09:57:54.859Z,1004.04
2018-07-25T09:58:54.922Z,1004.06
2018-07-25T09:59:54.833Z,1004.03
2018-07-25T10:00:54.920Z,1004.03
2018-07-25T10:01:54.826Z,1004.05
2018-07-25T10:02:54.817Z,1004.03
2018-07-25T10:03:54.811Z,1004.00
2018-07-25T10:04:54.802Z,1003.99
2018-07-25T10:05:54.819Z,1004.00
2018-07-25T10:06:54.786Z,1004.04
2018-07-25T10:07:54.778Z,1004.03
2018-07-25T10:08:54.775Z,1003.99
2018-07-25T10:09:54.763Z,1004.05
2018-07-25T10:10:54.789Z,1003.96
2018-07-25T10:11:54.749Z,1004.01
2018-07-25T10:12:54.739Z,1003.96
2018-07-25T10:13:54.731Z,1004.04
2018-07-25T10:14:54.750Z,1004.00
2018-07-25T10:15:54.746Z,1004.02
2018-07-25T10:16:54.708Z,1003.99
2018-07-25T10:17:54.702Z,1004.00
2018-07-25T10:18:54.705Z,1003.96
2018-07-25T10:19:54.685Z,1003.96
2018-07-25T10:20:54.802Z,1003.94
2018-07-25T10:21:54.668Z,1003.95
2018-07-25T10:22:54.659Z,1003.94
2018-07-25T10:23:54.652Z,1003.94
2018-07-25T10:24:54.645Z,1003.93
2018-07-25T10:25:54.664Z,1003.93
2018-07-25T10:26:54.632Z,1003.95
2018-07-25T10:27:54.621Z,1003.96
2018-07-25T10:28:54.648Z,1003.95
2018-07-25T10:29:54.606Z,1003.96
2018-07-25T10:30:54.622Z,1003.90
2018-07-25T10:31:54.590Z,1003.92
2018-07-25T10:32:54.589Z,1003.90
2018-07-25T10:33:54.574Z,1003.88
2018-07-25T10:34:54.581Z,1003.90
2018-07-25T10:35:54.625Z,1003.85
2018-07-25T10:36:54.551Z,1003.87
2018-07-25T10:37:54.543Z,1003.89
2018-07-25T10:38:54.542Z,1003.87
2018-07-25T10:39:54.528Z,1003.67
2018-07-25T10:40:54.547Z,1003.86
2018-07-25T10:41:54.513Z,1003.53
2018-07-25T10:42:54.505Z,1003.84
2018-07-25T10:43:54.499Z,1003.93
2018-07-25T10:44:54.491Z,1003.84
2018-07-25T10:45:54.518Z,1003.64
2018-07-25T10:46:54.473Z,1003.98
2018-07-25T10:47:54.465Z,1003.97
2018-07-25T10:48:54.482Z,1003.87
2018-07-25T10:49:54.449Z,1003.88
2018-07-25T10:50:54.469Z,1003.93
2018-07-25T10:51:54.434Z,1003.87
2018-07-25T10:52:54.439Z,1003.87
2018-07-25T10:53:54.417Z,1003.87
2018-07-25T10:54:54.409Z,1003.87
2018-07-25T10:55:54.465Z,1003.83
2018-07-25T10:56:54.395Z,1003.65
2018-07-25T10:57:54.393Z,1003.89
2018-07-25T10:58:54.380Z,1003.84
2018-07-25T10:59:54.372Z,1003.87
2018-07-25T11:00:54.406Z,1003.96
2018-07-25T11:01:54.358Z,1003.90
2018-07-25T11:02:54.349Z,1003.91
2018-07-25T11:03:54.411Z,1003.93
2018-07-25T11:04:54.332Z,1003.83
2018-07-25T11:05:54.350Z,1003.88
2018-07-25T11:06:54.317Z,1003.64
2018-07-25T11:07:54.308Z,1003.43
2018-07-25T11:08:54.301Z,1003.36
2018-07-25T11:09:54.292Z,1003.38
2018-07-25T11:10:54.309Z,1003.36
2018-07-25T11:11:54.286Z,1003.46
2018-07-25T11:12:54.267Z,1003.96
2018-07-25T11:13:54.260Z,1003.87
2018-07-25T11:14:54.250Z,1003.48
2018-07-25T11:15:54.266Z,1003.95
2018-07-25T11:16:54.235Z,1003.87
2018-07-25T11:17:54.226Z,1003.84
2018-07-25T11:18:54.218Z,1003.79
2018-07-25T11:19:54.213Z,1003.73
2018-07-25T11:20:54.228Z,1003.41
2018-07-25T11:21:54.193Z,1003.55
2018-07-25T11:22:54.196Z,1003.78
2018-07-25T11:23:54.175Z,1003.76
2018-07-25T11:24:54.170Z,1003.62
2018-07-25T11:25:54.216Z,1003.58
2018-07-25T11:26:54.156Z,1003.33
2018-07-25T11:27:54.139Z,1003.35
2018-07-25T11:28:54.252Z,1003.33
2018-07-25T11:29:54.122Z,1003.31
2018-07-25T11:30:54.138Z,1003.47
2018-07-25T11:31:54.157Z,1003.29
2018-07-25T11:32:54.184Z,1003.75
2018-07-25T11:33:54.088Z,1003.75
2018-07-25T11:34:54.078Z,1003.71
2018-07-25T11:35:54.093Z,1003.71
2018-07-25T11:36:54.060Z,1003.65
2018-07-25T11:37:54.051Z,1003.65
2018-07-25T11:38:54.045Z,1003.65
2018-07-25T11:39:54.035Z,1003.69
2018-07-25T11:40:54.051Z,1003.65
2018-07-25T11:41:54.019Z,1003.63
2018-07-25T11:42:54.011Z,1003.60
2018-07-25T11:43:54.008Z,1003.57
2018-07-25T11:44:53.996Z,1003.58
2018-07-25T11:45:54.013Z,1003.53
2018-07-25T11:46:53.979Z,1003.53
2018-07-25T11:47:53.970Z,1003.59
2018-07-25T11:48:53.965Z,1003.62
2018-07-25T11:49:53.997Z,1003.51
2018-07-25T11:50:53.977Z,1003.14
2018-07-25T11:51:53.943Z,1003.13
2018-07-25T11:52:53.933Z,1003.14
2018-07-25T11:53:53.924Z,1003.14
2018-07-25T11:54:53.917Z,1003.20
2018-07-25T11:55:53.939Z,1003.40
2018-07-25T11:56:53.898Z,1003.53
2018-07-25T11:57:53.889Z,1003.51
2018-07-25T11:58:53.883Z,1003.52
2018-07-25T11:59:53.873Z,1003.43
2018-07-25T12:00:53.888Z,1003.26
2018-07-25T12:01:53.862Z,1003.51
2018-07-25T12:02:53.847Z,1003.48
2018-07-25T12:03:53.840Z,1003.46
2018-07-25T12:04:53.832Z,1003.40